Time;durP1;ratioP1;P1;durP2;ratioP2;P2;SDS_P1;SDS_P2;PMS_P1;PMS_P2;Temp;Humidity;BMP_temperature;BMP_pressure;BME280_temperature;BME280_humidity;BME280_pressure;Samples;Min_cycle;Max_cycle;Signal;HPM_P1;HPM_P2
2022/08/22 00:02:29;;;;;;;19.00;17.48;;;20.50;82.00;;;;;;5030999;28;20048;-77
2022/08/22 00:05:26;;;;;;;17.75;16.65;;;20.50;82.60;;;;;;5031556;28;20144;-77
2022/08/22 00:07:55;;;;;;;18.55;17.17;;;20.20;83.80;;;;;;5048883;28;20056;-77
2022/08/22 00:10:24;;;;;;;18.88;17.65;;;20.20;84.00;;;;;;5048511;28;20035;-77
2022/08/22 00:13:06;;;;;;;19.52;18.38;;;20.10;84.20;;;;;;5047588;28;20385;-77
2022/08/22 00:15:37;;;;;;;20.00;18.52;;;20.30;83.40;;;;;;5047059;28;20026;-77
2022/08/22 00:18:13;;;;;;;21.83;20.55;;;20.20;84.10;;;;;;5048642;28;20171;-77
2022/08/22 00:20:47;;;;;;;22.23;20.92;;;20.20;83.30;;;;;;5030922;28;20045;-77
2022/08/22 00:23:52;;;;;;;23.88;22.48;;;20.30;82.90;;;;;;5048624;28;20033;-77
2022/08/22 00:26:26;;;;;;;21.23;20.02;;;20.40;82.10;;;;;;5030374;28;20041;-77
2022/08/22 00:29:07;;;;;;;22.90;21.33;;;20.40;81.90;;;;;;5047751;28;20148;-77
2022/08/22 00:32:14;;;;;;;23.95;22.58;;;20.40;81.70;;;;;;5047326;28;20064;-77
2022/08/22 00:34:49;;;;;;;23.70;22.42;;;20.40;81.70;;;;;;4981612;28;20435;-77
2022/08/22 00:37:18;;;;;;;22.58;21.27;;;20.40;81.70;;;;;;4953918;28;20436;-77
2022/08/22 00:39:51;;;;;;;22.50;21.10;;;20.50;81.50;;;;;;4985698;28;20066;-77
2022/08/22 00:42:57;;;;;;;25.10;23.50;;;20.50;81.30;;;;;;4953413;28;20046;-77
2022/08/22 00:45:46;;;;;;;25.23;23.73;;;20.40;81.10;;;;;;4960506;28;20035;-77
2022/08/22 00:48:31;;;;;;;24.65;23.30;;;20.40;81.10;;;;;;4948533;28;20039;-77
2022/08/22 00:51:15;;;;;;;24.48;23.13;;;20.50;81.10;;;;;;4950266;29;20116;-77
2022/08/22 00:53:49;;;;;;;23.27;21.77;;;20.50;80.80;;;;;;4950521;29;20035;-77
2022/08/22 00:56:49;;;;;;;22.15;20.70;;;20.50;80.70;;;;;;4949885;29;20039;-77
2022/08/22 00:59:48;;;;;;;22.23;20.73;;;20.50;80.70;;;;;;4964114;28;20051;-77
2022/08/22 01:02:36;;;;;;;23.85;22.45;;;20.50;80.20;;;;;;4965715;28;20044;-77
2022/08/22 01:05:09;;;;;;;26.52;25.02;;;20.40;80.20;;;;;;4966727;28;20583;-77
2022/08/22 01:07:40;;;;;;;28.08;26.63;;;20.40;80.50;;;;;;4950609;28;20055;-77
2022/08/22 01:10:29;;;;;;;31.08;29.10;;;20.30;80.50;;;;;;5002046;28;20398;-77
2022/08/22 01:13:04;;;;;;;28.65;27.00;;;20.30;80.30;;;;;;5029047;28;20513;-77
2022/08/22 01:15:32;;;;;;;27.75;26.20;;;20.30;80.50;;;;;;5029437;28;20029;-77
2022/08/22 01:18:12;;;;;;;28.63;26.77;;;20.30;80.70;;;;;;5029482;28;20022;-77
2022/08/22 01:21:03;;;;;;;29.55;27.77;;;20.30;80.60;;;;;;5013874;28;20521;-77
2022/08/22 01:23:44;;;;;;;29.95;28.35;;;20.30;80.50;;;;;;5028899;28;20038;-77
2022/08/22 01:26:26;;;;;;;33.40;31.55;;;20.30;80.50;;;;;;5032106;28;20471;-77
2022/08/22 01:29:11;;;;;;;36.35;34.35;;;20.30;80.70;;;;;;5032712;28;20523;-77
2022/08/22 01:32:04;;;;;;;34.80;32.65;;;20.30;80.70;;;;;;5028757;28;20041;-77
2022/08/22 01:34:45;;;;;;;34.50;32.50;;;20.30;81.30;;;;;;5012759;28;20026;-77
2022/08/22 01:37:42;;;;;;;35.35;33.45;;;20.30;80.80;;;;;;5012776;28;20049;-77
2022/08/22 01:40:29;;;;;;;39.20;37.05;;;20.30;80.80;;;;;;5024359;28;20036;-77
2022/08/22 01:43:14;;;;;;;41.53;39.25;;;20.30;80.90;;;;;;5033506;28;20045;-77
2022/08/22 01:46:05;;;;;;;40.38;38.17;;;20.30;81.00;;;;;;5020135;28;20037;-77
2022/08/22 01:48:36;;;;;;;42.50;40.17;;;20.20;81.00;;;;;;5053459;28;20033;-77
2022/08/22 01:51:12;;;;;;;40.28;38.15;;;20.30;81.20;;;;;;5036070;28;20029;-77
2022/08/22 01:53:47;;;;;;;41.42;39.17;;;20.30;81.20;;;;;;5035479;28;20025;-77
2022/08/22 01:56:21;;;;;;;40.17;38.08;;;20.30;81.10;;;;;;5019958;28;20508;-77
2022/08/22 01:58:54;;;;;;;42.25;39.80;;;20.30;81.20;;;;;;5052351;28;20029;-77
2022/08/22 02:01:37;;;;;;;39.85;37.45;;;20.40;81.20;;;;;;5051547;28;20417;-77
2022/08/22 02:04:15;;;;;;;37.85;35.85;;;20.40;81.10;;;;;;5035212;28;20044;-77
2022/08/22 02:07:03;;;;;;;41.42;38.92;;;20.40;81.20;;;;;;5052123;28;20033;-77
2022/08/22 02:09:38;;;;;;;37.33;35.20;;;20.40;81.10;;;;;;5051810;28;20466;-77
2022/08/22 02:12:10;;;;;;;36.30;34.20;;;20.40;81.30;;;;;;5052796;28;20033;-77
2022/08/22 02:15:17;;;;;;;37.45;35.13;;;20.40;81.20;;;;;;5052956;28;20033;-77
2022/08/22 02:17:55;;;;;;;39.80;37.30;;;20.40;81.00;;;;;;5016344;28;20056;-77
2022/08/22 02:20:44;;;;;;;36.95;34.60;;;20.40;81.50;;;;;;5033369;28;20052;-77
2022/08/22 02:23:29;;;;;;;35.13;33.03;;;20.40;81.50;;;;;;5050195;28;20048;-77
2022/08/22 02:26:01;;;;;;;36.40;34.00;;;20.40;81.20;;;;;;5050441;28;20033;-77
2022/08/22 02:28:49;;;;;;;35.25;33.20;;;20.40;81.30;;;;;;5033427;28;20056;-77
2022/08/22 02:31:37;;;;;;;34.72;32.67;;;20.40;81.40;;;;;;5033022;28;20025;-77
2022/08/22 02:34:40;;;;;;;30.50;28.90;;;20.40;81.30;;;;;;5047480;28;20132;-77
2022/08/22 02:37:32;;;;;;;27.33;25.67;;;20.50;81.80;;;;;;5009891;28;20033;-77
2022/08/22 02:40:12;;;;;;;26.70;25.20;;;20.60;81.20;;;;;;5013755;28;20479;-77
2022/08/22 02:43:19;;;;;;;27.48;25.45;;;20.60;81.30;;;;;;5026722;28;20042;-76
2022/08/22 02:45:53;;;;;;;24.95;23.48;;;20.50;81.00;;;;;;5035173;28;20037;-77
2022/08/22 02:48:45;;;;;;;23.13;21.73;;;20.50;82.50;;;;;;5049032;28;20417;-77
2022/08/22 02:51:18;;;;;;;24.83;23.30;;;20.40;83.40;;;;;;5032836;28;20184;-77
2022/08/22 02:54:13;;;;;;;24.52;22.92;;;20.30;83.40;;;;;;5060620;28;20037;-77
2022/08/22 02:56:42;;;;;;;24.55;23.00;;;20.40;82.40;;;;;;5032658;28;20033;-77
2022/08/22 02:59:31;;;;;;;23.27;21.83;;;20.40;82.20;;;;;;5049469;28;20041;-77
2022/08/22 03:01:57;;;;;;;25.50;24.00;;;20.50;82.10;;;;;;5048930;28;20041;-77
2022/08/22 03:04:23;;;;;;;25.55;23.95;;;20.50;81.90;;;;;;5032858;28;20188;-77
2022/08/22 03:07:08;;;;;;;26.33;24.77;;;20.60;81.80;;;;;;5049404;28;20047;-77
2022/08/22 03:10:04;;;;;;;28.10;26.25;;;20.50;81.40;;;;;;5032819;28;20044;-77
2022/08/22 03:12:41;;;;;;;27.95;26.35;;;20.60;81.50;;;;;;5032415;28;20037;-77
2022/08/22 03:15:24;;;;;;;30.45;28.55;;;20.60;81.60;;;;;;5048952;28;20040;-77
2022/08/22 03:18:22;;;;;;;34.97;32.78;;;20.50;81.40;;;;;;5049431;28;20025;-77
2022/08/22 03:20:57;;;;;;;30.48;28.58;;;20.50;81.50;;;;;;5048965;28;20072;-77
2022/08/22 03:23:40;;;;;;;26.52;24.75;;;20.60;82.30;;;;;;5032257;28;20053;-77
2022/08/22 03:26:14;;;;;;;25.27;23.63;;;20.50;82.40;;;;;;5048586;28;20048;-77
2022/08/22 03:28:45;;;;;;;24.80;23.27;;;20.60;82.70;;;;;;5049279;28;20049;-77
2022/08/22 03:31:12;;;;;;;;;;;20.40;83.70;;;;;;5031867;28;20040;-77
2022/08/22 03:33:39;;;;;;;28.42;26.60;;;20.20;85.20;;;;;;5057121;28;19912;-77
2022/08/22 03:36:10;;;;;;;38.28;35.90;;;20.00;85.80;;;;;;5049953;28;20052;-77
2022/08/22 03:39:03;;;;;;;50.92;48.17;;;19.90;86.70;;;;;;5050189;28;20021;-77
2022/08/22 03:41:41;;;;;;;55.90;53.00;;;19.90;86.60;;;;;;5031011;28;20401;-77
2022/08/22 03:44:18;;;;;;;52.80;50.03;;;19.90;86.40;;;;;;5037301;28;20029;-77
2022/08/22 03:47:06;;;;;;;49.22;46.38;;;20.00;85.10;;;;;;5052316;28;20083;-77
2022/08/22 03:49:41;;;;;;;49.42;46.50;;;20.20;84.60;;;;;;5051090;28;20024;-77
2022/08/22 03:53:06;;;;;;;46.88;44.28;;;20.20;84.00;;;;;;5051204;28;20033;-77
2022/08/22 03:55:49;;;;;;;44.83;42.28;;;20.20;84.90;;;;;;5051039;28;20501;-77
2022/08/22 03:58:43;;;;;;;46.20;43.60;;;20.20;84.80;;;;;;5050303;28;20238;-77
2022/08/22 04:01:30;;;;;;;52.63;49.75;;;20.20;85.30;;;;;;5050672;28;20036;-77
2022/08/22 04:04:21;;;;;;;60.45;57.22;;;20.10;85.50;;;;;;5033614;28;20044;-78
2022/08/22 04:07:05;;;;;;;65.53;62.05;;;20.10;86.00;;;;;;5051212;28;20032;-77
2022/08/22 04:09:31;;;;;;;70.60;66.95;;;20.00;85.70;;;;;;5051079;28;20032;-77
2022/08/22 04:12:03;;;;;;;63.20;59.83;;;20.00;86.50;;;;;;5050747;28;20029;-77
2022/08/22 04:14:44;;;;;;;29.10;27.40;;;20.00;86.20;;;;;;5050858;28;20363;-77
2022/08/22 04:17:10;;;;;;;;;;;19.90;86.90;;;;;;5049657;28;20029;-77
2022/08/22 04:20:02;;;;;;;33.15;31.17;;;19.90;86.70;;;;;;5048856;28;19967;-77
2022/08/22 04:22:46;;;;;;;28.05;26.33;;;20.00;85.60;;;;;;5033095;28;20053;-77
2022/08/22 04:25:26;;;;;;;25.17;23.67;;;20.10;85.00;;;;;;5050961;28;20036;-77
2022/08/22 04:28:01;;;;;;;25.13;23.20;;;20.20;84.80;;;;;;5049612;28;20469;-77
2022/08/22 04:30:32;;;;;;;24.35;22.75;;;20.30;84.20;;;;;;5049037;28;20029;-77
2022/08/22 04:33:11;;;;;;;;;;;20.30;84.10;;;;;;5032600;28;20041;-77
2022/08/22 04:36:01;;;;;;;27.60;25.90;;;20.30;83.50;;;;;;5048986;28;19923;-77
2022/08/22 04:38:41;;;;;;;26.65;24.92;;;20.30;83.80;;;;;;5049670;28;20021;-77
2022/08/22 04:41:09;;;;;;;27.42;25.55;;;20.30;83.70;;;;;;5049204;28;20394;-77
2022/08/22 04:43:35;;;;;;;28.63;26.75;;;20.40;83.90;;;;;;5049492;28;20041;-77
2022/08/22 04:46:44;;;;;;;28.80;27.05;;;20.40;83.30;;;;;;5069005;28;20029;-77
2022/08/22 04:49:47;;;;;;;27.92;26.33;;;20.40;83.50;;;;;;5020196;28;20419;-77
2022/08/22 04:52:45;;;;;;;30.13;28.45;;;20.40;83.20;;;;;;4992213;28;20041;-77
2022/08/22 04:55:32;;;;;;;33.42;31.38;;;20.50;82.90;;;;;;4912134;29;20040;-77
2022/08/22 04:58:19;;;;;;;33.60;31.70;;;20.50;83.00;;;;;;4912158;29;20070;-77
2022/08/22 05:01:03;;;;;;;29.80;28.10;;;20.50;83.00;;;;;;4915288;29;20035;-77
2022/08/22 05:03:29;;;;;;;30.98;29.10;;;20.50;82.70;;;;;;4915652;29;20044;-77
2022/08/22 05:05:56;;;;;;;31.20;29.15;;;20.50;82.70;;;;;;4915668;29;20067;-77
2022/08/22 05:08:25;;;;;;;32.38;30.48;;;20.50;83.80;;;;;;4915466;29;20047;-77
2022/08/22 05:10:51;;;;;;;30.20;28.20;;;20.50;82.80;;;;;;4915567;29;20028;-77
2022/08/22 05:13:38;;;;;;;30.40;28.48;;;20.50;83.00;;;;;;4915369;29;20040;-77
2022/08/22 05:16:08;;;;;;;33.83;31.70;;;20.50;83.10;;;;;;4915139;29;20036;-77
2022/08/22 05:18:39;;;;;;;34.43;32.40;;;20.50;82.90;;;;;;4915075;29;20474;-77
2022/08/22 05:21:06;;;;;;;34.83;32.72;;;20.50;82.90;;;;;;4915232;29;20381;-77
2022/08/22 05:23:47;;;;;;;31.80;29.83;;;20.60;82.90;;;;;;4915328;29;20054;-77
2022/08/22 05:26:13;;;;;;;34.47;32.47;;;20.50;83.80;;;;;;4973026;28;20042;-77
2022/08/22 05:28:44;;;;;;;34.33;32.28;;;20.50;83.60;;;;;;4956854;28;20038;-77
2022/08/22 05:31:20;;;;;;;34.58;32.42;;;20.50;83.10;;;;;;4944459;28;20034;-77
2022/08/22 05:33:48;;;;;;;31.73;29.77;;;20.50;83.70;;;;;;5032545;28;20021;-77
2022/08/22 05:36:20;;;;;;;31.42;29.63;;;20.50;83.30;;;;;;5032473;28;20029;-77
2022/08/22 05:38:49;;;;;;;34.53;32.45;;;20.50;83.10;;;;;;5032662;28;20030;-77
2022/08/22 05:41:24;;;;;;;36.10;34.10;;;20.50;83.20;;;;;;4995683;28;20046;-77
2022/08/22 05:43:50;;;;;;;34.97;32.95;;;20.60;83.10;;;;;;4997943;28;20388;-77
2022/08/22 05:46:23;;;;;;;33.67;31.48;;;20.60;83.70;;;;;;5028181;28;20029;-77
2022/08/22 05:48:55;;;;;;;34.03;32.17;;;20.70;82.60;;;;;;5035992;28;20044;-77
2022/08/22 05:51:33;;;;;;;33.38;31.48;;;20.70;82.40;;;;;;5019326;28;20037;-77
2022/08/22 05:54:14;;;;;;;34.67;32.42;;;20.80;82.20;;;;;;5020593;28;20037;-77
2022/08/22 05:56:46;;;;;;;33.55;31.65;;;20.70;82.40;;;;;;5020483;28;20041;-77
2022/08/22 05:59:30;;;;;;;33.50;31.67;;;20.60;83.90;;;;;;5019219;28;20029;-77
2022/08/22 06:02:16;;;;;;;34.42;32.42;;;20.60;83.60;;;;;;5050086;28;20067;-77
2022/08/22 06:04:59;;;;;;;35.85;33.55;;;20.60;83.30;;;;;;5037275;28;20037;-77
2022/08/22 06:07:30;;;;;;;34.47;32.55;;;20.70;83.00;;;;;;5052172;28;20611;-77
2022/08/22 06:10:34;;;;;;;32.72;30.65;;;20.70;83.00;;;;;;5051024;28;20029;-77
2022/08/22 06:13:04;;;;;;;33.72;31.52;;;20.70;83.40;;;;;;5053092;28;20021;-77
2022/08/22 06:15:45;;;;;;;34.83;32.53;;;20.60;83.80;;;;;;5034369;28;20025;-77
2022/08/22 06:18:13;;;;;;;36.50;34.25;;;20.60;83.50;;;;;;5035025;28;20037;-77
2022/08/22 06:20:44;;;;;;;35.35;33.25;;;20.70;83.30;;;;;;5051516;28;20025;-77
2022/08/22 06:23:14;;;;;;;34.15;32.20;;;20.70;83.40;;;;;;5051481;28;20089;-77
2022/08/22 06:25:42;;;;;;;31.77;29.87;;;20.70;83.30;;;;;;5051619;28;20024;-77
2022/08/22 06:28:10;;;;;;;31.70;29.73;;;20.80;83.40;;;;;;5034817;28;20041;-77
2022/08/22 06:30:36;;;;;;;29.63;27.92;;;20.80;83.10;;;;;;5048689;28;20383;-77
2022/08/22 06:33:09;;;;;;;31.33;29.23;;;20.90;83.00;;;;;;5051216;28;20029;-77
2022/08/22 06:38:51;;;;;;;30.25;28.30;;;20.90;83.30;;;;;;5038572;28;20051;-77
2022/08/22 06:41:17;;;;;;;27.50;25.75;;;21.00;82.90;;;;;;5015348;28;20041;-77
2022/08/22 06:43:43;;;;;;;26.15;24.67;;;21.00;82.70;;;;;;5018624;28;20029;-77
2022/08/22 06:46:09;;;;;;;26.20;24.42;;;21.00;83.30;;;;;;5037492;28;20017;-77
2022/08/22 06:48:36;;;;;;;25.77;23.90;;;21.00;83.20;;;;;;5017865;28;20037;-77
2022/08/22 06:51:02;;;;;;;25.92;23.63;;;21.10;82.60;;;;;;5034552;28;20025;-77
2022/08/22 06:53:34;;;;;;;24.95;23.25;;;21.10;82.50;;;;;;5034296;28;20462;-77
2022/08/22 06:56:07;;;;;;;25.30;23.20;;;21.20;82.20;;;;;;5034629;28;20040;-77
2022/08/22 06:58:39;;;;;;;25.17;23.52;;;21.20;82.50;;;;;;5034880;28;20025;-77
2022/08/22 07:01:16;;;;;;;28.75;26.48;;;21.30;82.60;;;;;;5051705;28;20040;-77
2022/08/22 07:03:45;;;;;;;25.10;23.30;;;21.20;83.50;;;;;;5050719;28;20497;-77
2022/08/22 07:06:16;;;;;;;25.98;24.13;;;20.90;85.20;;;;;;5034260;28;20041;-77
2022/08/22 07:08:42;;;;;;;28.55;26.65;;;20.80;85.40;;;;;;5034231;28;20070;-78
2022/08/22 07:11:08;;;;;;;25.58;23.90;;;21.00;85.20;;;;;;5050766;28;20032;-78
2022/08/22 07:13:35;;;;;;;27.90;26.15;;;21.20;84.30;;;;;;5051774;28;20437;-78
2022/08/22 07:16:04;;;;;;;28.00;25.90;;;21.40;83.70;;;;;;5034054;28;20025;-78
2022/08/22 07:18:31;;;;;;;27.05;25.30;;;21.30;83.30;;;;;;5033598;28;20032;-78
2022/08/22 07:21:02;;;;;;;30.50;28.40;;;21.40;83.30;;;;;;5050506;28;20036;-77
2022/08/22 07:23:35;;;;;;;33.38;31.20;;;21.50;83.00;;;;;;5034075;28;20045;-78
2022/08/22 07:26:21;;;;;;;32.88;30.80;;;21.60;82.50;;;;;;5050399;28;20043;-78
2022/08/22 07:29:02;;;;;;;32.10;29.75;;;21.70;81.90;;;;;;5050144;28;20481;-78
2022/08/22 07:31:46;;;;;;;29.60;27.42;;;21.80;81.30;;;;;;5049694;28;20044;-78
2022/08/22 07:34:41;;;;;;;32.50;30.15;;;21.90;81.00;;;;;;5050460;28;20047;-78
2022/08/22 07:37:19;;;;;;;31.17;29.08;;;21.70;81.70;;;;;;5010765;28;20042;-78
2022/08/22 07:40:24;;;;;;;31.65;29.55;;;21.70;81.80;;;;;;5006115;28;20044;-78
2022/08/22 07:42:58;;;;;;;29.60;27.83;;;21.70;81.70;;;;;;5028235;28;20052;-77
2022/08/22 07:45:38;;;;;;;32.83;30.83;;;21.70;81.70;;;;;;5034640;28;20143;-78
2022/08/22 07:48:15;;;;;;;33.00;31.00;;;21.70;81.50;;;;;;5030018;28;20482;-77
2022/08/22 07:51:03;;;;;;;30.83;28.92;;;21.90;81.10;;;;;;5014970;28;20292;-78
2022/08/22 07:53:29;;;;;;;32.20;30.33;;;21.90;80.80;;;;;;5030222;28;20025;-78
2022/08/22 07:55:55;;;;;;;33.50;31.52;;;22.00;80.50;;;;;;5031308;28;20597;-77
2022/08/22 07:58:22;;;;;;;34.95;32.85;;;22.10;79.90;;;;;;5013269;28;20033;-78
2022/08/22 08:00:49;;;;;;;35.72;33.70;;;22.30;79.40;;;;;;5013299;28;20497;-78
2022/08/22 08:03:15;;;;;;;37.78;35.58;;;22.20;79.30;;;;;;5013572;28;20045;-77
2022/08/22 08:05:42;;;;;;;37.03;35.13;;;22.30;79.20;;;;;;5013474;28;20037;-78
2022/08/22 08:08:29;;;;;;;38.95;36.72;;;22.30;79.20;;;;;;5014003;28;20386;-78
2022/08/22 08:10:56;;;;;;;35.28;33.25;;;22.30;79.10;;;;;;4998329;28;20091;-77
2022/08/22 08:13:45;;;;;;;36.63;34.50;;;22.30;79.10;;;;;;4996969;28;20038;-78
2022/08/22 08:16:20;;;;;;;35.35;33.47;;;22.20;79.70;;;;;;5029186;28;20025;-77
2022/08/22 08:18:47;;;;;;;36.40;34.05;;;22.10;80.10;;;;;;5013196;28;20041;-77
2022/08/22 08:21:41;;;;;;;34.95;32.75;;;22.20;80.10;;;;;;4996953;28;20044;-77
2022/08/22 08:24:10;;;;;;;33.33;30.85;;;22.20;80.00;;;;;;5040288;28;20057;-77
2022/08/22 08:28:32;;;;;;;35.65;33.47;;;22.30;79.70;;;;;;5013129;28;20033;-78
2022/08/22 08:29:31;;;;;;;32.40;30.58;;;22.40;79.20;;;;;;5016674;28;20033;-78
2022/08/22 08:31:57;;;;;;;35.13;33.05;;;22.50;79.10;;;;;;5009131;28;20041;-77
2022/08/22 08:34:24;;;;;;;35.60;33.60;;;22.40;79.00;;;;;;5012481;28;20076;-78
2022/08/22 08:36:58;;;;;;;34.35;32.17;;;22.50;78.80;;;;;;5014711;28;20394;-78
2022/08/22 08:39:27;;;;;;;34.45;32.50;;;22.50;79.40;;;;;;5013842;28;20064;-78
2022/08/22 08:42:05;;;;;;;34.67;32.72;;;22.50;78.90;;;;;;5014980;28;20575;-77
2022/08/22 08:44:55;;;;;;;35.00;32.97;;;22.60;78.90;;;;;;5024701;28;20482;-78
2022/08/22 08:47:33;;;;;;;34.45;32.53;;;22.60;78.80;;;;;;5057047;28;20057;-78
2022/08/22 08:50:21;;;;;;;35.47;33.25;;;22.50;79.30;;;;;;5052921;28;20399;-78
2022/08/22 08:53:12;;;;;;;37.92;35.63;;;22.60;79.10;;;;;;5054663;28;20040;-77
2022/08/22 08:56:17;;;;;;;33.60;31.80;;;22.50;79.70;;;;;;5054698;28;20036;-77
2022/08/22 08:59:21;;;;;;;36.67;34.67;;;22.50;79.60;;;;;;5052992;28;20033;-78
2022/08/22 09:01:53;;;;;;;35.70;33.60;;;22.60;79.40;;;;;;5049751;28;20478;-77
2022/08/22 09:04:41;;;;;;;37.05;34.95;;;22.60;79.10;;;;;;5053180;28;20401;-78
2022/08/22 09:07:32;;;;;;;35.13;32.92;;;22.60;79.30;;;;;;5054006;28;20048;-78
2022/08/22 09:10:22;;;;;;;33.35;31.58;;;22.60;79.30;;;;;;5052777;28;20035;-78
2022/08/22 09:13:27;;;;;;;33.65;31.85;;;22.60;79.40;;;;;;5053390;28;20359;-78
2022/08/22 09:15:59;;;;;;;35.47;33.38;;;22.60;79.20;;;;;;5036110;28;20036;-78
2022/08/22 09:18:43;;;;;;;38.75;36.58;;;22.70;79.00;;;;;;5053020;28;20037;-78
2022/08/22 09:21:37;;;;;;;36.78;34.75;;;22.70;79.40;;;;;;5052612;28;20037;-78
2022/08/22 09:24:15;;;;;;;37.60;35.72;;;22.80;78.80;;;;;;5052386;28;20033;-78
2022/08/22 09:27:00;;;;;;;42.10;39.92;;;22.90;78.50;;;;;;5052791;28;20041;-78
2022/08/22 09:29:34;;;;;;;41.28;38.95;;;22.90;78.70;;;;;;5035890;28;20454;-78
2022/08/22 09:32:00;;;;;;;41.72;39.50;;;23.00;78.70;;;;;;5053246;28;20033;-78
2022/08/22 09:35:01;;;;;;;41.97;39.75;;;23.00;78.40;;;;;;5052634;28;20040;-78
2022/08/22 09:37:34;;;;;;;39.78;37.65;;;23.10;78.20;;;;;;5032213;28;20041;-78
2022/08/22 09:40:04;;;;;;;38.58;36.40;;;23.10;78.20;;;;;;5032119;28;20037;-78
2022/08/22 09:42:36;;;;;;;42.55;40.47;;;23.20;78.10;;;;;;5052369;28;20044;-78
2022/08/22 09:45:21;;;;;;;44.08;41.78;;;23.20;78.90;;;;;;5050807;28;20048;-78
2022/08/22 09:48:14;;;;;;;47.25;44.53;;;23.20;78.70;;;;;;5054384;28;20530;-78
2022/08/22 09:50:59;;;;;;;43.75;41.58;;;23.20;79.00;;;;;;5035994;28;20482;-78
2022/08/22 09:53:50;;;;;;;42.63;40.42;;;23.30;79.20;;;;;;5051609;28;20033;-78
2022/08/22 09:56:20;;;;;;;38.63;36.72;;;23.40;78.00;;;;;;5053392;28;20051;-78
2022/08/22 09:58:52;;;;;;;39.65;37.72;;;23.40;78.50;;;;;;5052360;28;20035;-78
2022/08/22 10:01:27;;;;;;;40.03;38.10;;;23.50;78.10;;;;;;5051122;28;20513;-78
2022/08/22 10:04:27;;;;;;;44.85;42.55;;;23.60;77.80;;;;;;5052035;28;20037;-78
2022/08/22 10:07:04;;;;;;;46.57;44.30;;;23.80;77.40;;;;;;5053365;28;20032;-78
2022/08/22 10:09:43;;;;;;;51.40;48.80;;;24.00;76.60;;;;;;5051588;28;20521;-78
2022/08/22 10:12:11;;;;;;;56.55;53.78;;;24.30;76.50;;;;;;5036013;28;20040;-78
2022/08/22 10:15:08;;;;;;;59.55;56.50;;;24.50;74.60;;;;;;5035089;28;20595;-78
2022/08/22 10:17:35;;;;;;;64.47;61.38;;;24.70;73.80;;;;;;5023599;28;20038;-78
2022/08/22 10:20:05;;;;;;;71.40;68.05;;;24.90;72.90;;;;;;4962405;28;20042;-78
2022/08/22 10:22:49;;;;;;;78.13;74.45;;;25.10;72.50;;;;;;5010295;28;20046;-78
2022/08/22 10:25:33;;;;;;;68.75;65.47;;;25.30;71.40;;;;;;5010928;28;20030;-78
2022/08/22 10:28:15;;;;;;;64.93;61.83;;;25.30;70.50;;;;;;5010937;28;20037;-78
2022/08/22 10:30:46;;;;;;;60.67;57.72;;;25.40;70.00;;;;;;4995184;28;20026;-78
2022/08/22 10:33:21;;;;;;;60.92;58.03;;;25.30;69.40;;;;;;5010707;28;20390;-78
2022/08/22 10:35:50;;;;;;;54.90;52.25;;;25.30;70.10;;;;;;4993576;28;20368;-78
2022/08/22 10:38:39;;;;;;;57.55;54.78;;;25.30;70.60;;;;;;5010338;28;20046;-78
2022/08/22 10:41:40;;;;;;;57.15;54.40;;;25.40;71.30;;;;;;4987662;28;20621;-78
2022/08/22 10:44:12;;;;;;;62.50;59.50;;;25.50;70.50;;;;;;4997929;28;20419;-78
2022/08/22 10:46:40;;;;;;;65.43;62.30;;;25.60;70.40;;;;;;5026118;28;20045;-78
2022/08/22 10:49:28;;;;;;;63.88;60.88;;;25.70;69.40;;;;;;5010060;28;20062;-78
2022/08/22 10:52:08;;;;;;;70.88;66.68;;;25.70;68.80;;;;;;5002808;28;20050;-78
2022/08/22 10:54:55;;;;;;;65.68;62.42;;;25.80;68.80;;;;;;5007333;28;20034;-78
2022/08/22 10:57:25;;;;;;;68.00;64.72;;;25.80;68.90;;;;;;5045036;28;20036;-78
2022/08/22 11:00:00;;;;;;;63.85;60.75;;;25.80;67.90;;;;;;5047702;28;20033;-78
2022/08/22 11:03:04;;;;;;;63.95;60.67;;;25.70;67.70;;;;;;5046168;28;20033;-78
2022/08/22 11:05:38;;;;;;;64.05;60.92;;;25.60;68.30;;;;;;5032125;28;20029;-78
2022/08/22 11:08:27;;;;;;;58.38;55.58;;;25.50;68.10;;;;;;5030813;28;20041;-78
2022/08/22 11:11:25;;;;;;;65.38;62.28;;;25.50;69.40;;;;;;5030701;28;20040;-78
2022/08/22 11:14:10;;;;;;;61.28;58.38;;;25.50;67.10;;;;;;5009905;28;20049;-78
2022/08/22 11:16:42;;;;;;;64.50;61.40;;;25.50;67.30;;;;;;4992551;28;20041;-78
2022/08/22 11:19:11;;;;;;;64.90;61.80;;;25.40;67.30;;;;;;5009603;28;20032;-78
2022/08/22 11:21:54;;;;;;;62.83;59.78;;;25.40;67.00;;;;;;5009280;28;20371;-78
2022/08/22 11:24:44;;;;;;;63.72;60.63;;;25.40;67.70;;;;;;4992907;28;20042;-78
2022/08/22 11:27:10;;;;;;;63.50;60.35;;;25.50;67.20;;;;;;5009892;28;20185;-78
2022/08/22 11:29:52;;;;;;;62.90;59.88;;;25.70;67.10;;;;;;5009360;28;20057;-78
2022/08/22 11:32:30;;;;;;;56.30;53.42;;;25.80;66.60;;;;;;4992427;28;20030;-78
2022/08/22 11:34:59;;;;;;;54.30;51.55;;;26.00;64.90;;;;;;5008755;28;20045;-78
2022/08/22 11:37:40;;;;;;;64.60;61.50;;;26.10;63.90;;;;;;4993117;28;20038;-78
2022/08/22 11:40:18;;;;;;;64.72;61.60;;;26.10;64.70;;;;;;5019954;28;20486;-78
2022/08/22 11:43:10;;;;;;;60.78;57.83;;;26.20;64.70;;;;;;5028602;28;20052;-78
2022/08/22 11:45:47;;;;;;;64.15;61.05;;;26.30;64.50;;;;;;4982434;28;20026;-78
2022/08/22 11:48:50;;;;;;;64.43;61.28;;;26.20;64.10;;;;;;4995987;28;20426;-78
2022/08/22 11:51:42;;;;;;;56.55;53.70;;;26.20;64.00;;;;;;5029007;28;20207;-78
2022/08/22 11:54:30;;;;;;;56.05;53.35;;;26.20;63.70;;;;;;5015124;28;20052;-78
2022/08/22 11:57:18;;;;;;;55.78;52.72;;;26.30;62.80;;;;;;4950703;29;20400;-78
2022/08/22 11:59:45;;;;;;;55.78;52.88;;;26.40;62.60;;;;;;4934436;29;20399;-78
2022/08/22 12:02:34;;;;;;;48.95;46.55;;;26.60;62.20;;;;;;4950190;29;20142;-78
2022/08/22 12:05:08;;;;;;;48.75;46.35;;;26.70;61.70;;;;;;4950910;29;20488;-78
2022/08/22 12:07:38;;;;;;;40.55;38.55;;;26.90;60.80;;;;;;4950414;29;20062;-78
2022/08/22 12:10:27;;;;;;;44.22;42.03;;;27.10;60.30;;;;;;4934147;29;20039;-78
2022/08/22 12:13:02;;;;;;;38.53;36.63;;;27.10;59.70;;;;;;4934728;29;20035;-78
2022/08/22 12:15:46;;;;;;;46.53;44.22;;;27.10;59.60;;;;;;4950457;29;20416;-78
2022/08/22 12:18:42;;;;;;;55.03;52.17;;;26.90;60.00;;;;;;4950459;29;20035;-78
2022/08/22 12:21:29;;;;;;;48.50;46.10;;;27.00;60.20;;;;;;4950469;29;20397;-78
2022/08/22 12:24:10;;;;;;;41.70;39.60;;;27.00;59.90;;;;;;4934360;29;20077;-78
2022/08/22 12:27:08;;;;;;;46.15;43.78;;;27.00;59.50;;;;;;4973517;28;20046;-78
2022/08/22 12:29:54;;;;;;;42.28;40.15;;;27.00;60.40;;;;;;4974198;28;20047;-78
2022/08/22 12:32:36;;;;;;;50.22;47.72;;;27.10;59.80;;;;;;4972384;28;20030;-78
2022/08/22 12:35:24;;;;;;;52.50;49.85;;;27.20;59.60;;;;;;5038607;28;20056;-78
2022/08/22 12:37:56;;;;;;;50.15;47.70;;;27.30;59.30;;;;;;5049716;28;20049;-78
2022/08/22 12:40:22;;;;;;;53.85;50.80;;;27.30;59.30;;;;;;5049315;28;20037;-78
2022/08/22 12:43:06;;;;;;;45.60;43.28;;;27.50;59.50;;;;;;5050631;28;20033;-78
2022/08/22 12:46:08;;;;;;;43.65;41.50;;;27.60;58.00;;;;;;5052650;28;20094;-78
2022/08/22 12:48:42;;;;;;;39.42;37.22;;;27.60;58.10;;;;;;5043287;28;20076;-78
2022/08/22 12:51:26;;;;;;;36.17;34.38;;;27.90;56.80;;;;;;5049481;28;20029;-78
2022/08/22 12:53:52;;;;;;;32.65;31.08;;;27.90;56.50;;;;;;5050543;28;20048;-78
2022/08/22 12:56:23;;;;;;;32.03;30.52;;;28.00;56.10;;;;;;5049062;28;20037;-78
2022/08/22 12:59:19;;;;;;;31.40;29.83;;;27.80;55.70;;;;;;5032297;28;20037;-78
2022/08/22 13:01:47;;;;;;;35.30;33.58;;;27.60;56.90;;;;;;5044924;28;20079;-78
2022/08/22 13:04:15;;;;;;;36.15;34.33;;;27.60;57.20;;;;;;5049246;28;20481;-78
2022/08/22 13:06:48;;;;;;;37.13;35.33;;;27.60;56.80;;;;;;5049427;28;20048;-78
2022/08/22 13:09:25;;;;;;;39.30;37.30;;;27.60;57.10;;;;;;5049098;28;20045;-78
2022/08/22 13:11:52;;;;;;;42.47;40.38;;;27.60;57.40;;;;;;5049077;28;20021;-78
2022/08/22 13:14:20;;;;;;;44.55;42.15;;;27.50;57.80;;;;;;5049409;28;20024;-78
2022/08/22 13:16:49;;;;;;;43.28;41.17;;;27.60;57.70;;;;;;5031989;28;20025;-78
2022/08/22 13:19:23;;;;;;;46.58;44.28;;;27.70;57.30;;;;;;5049754;28;20374;-78
2022/08/22 13:22:10;;;;;;;49.92;47.50;;;27.70;57.70;;;;;;5052662;28;20025;-78
2022/08/22 13:24:41;;;;;;;46.83;44.58;;;27.80;57.30;;;;;;5052812;28;20033;-78
2022/08/22 13:27:13;;;;;;;43.67;41.38;;;27.90;56.90;;;;;;5052725;28;20025;-78
2022/08/22 13:29:54;;;;;;;35.08;33.33;;;27.90;56.70;;;;;;5052592;28;20033;-78
2022/08/22 13:32:23;;;;;;;;;;;27.80;56.70;;;;;;5052671;28;20478;-78
2022/08/22 13:34:53;;;;;;;36.95;35.15;;;27.90;56.90;;;;;;5052440;28;20265;-78